Date,TemperatureHighF,TemperatureAvgF,TemperatureLowF,DewpointHighF,DewpointAvgF,DewpointLowF,HumidityHigh,HumidityAvg,HumidityLow,PressureMaxIn,PressureMinIn,WindSpeedMaxMPH,WindSpeedAvgMPH,GustSpeedMaxMPH,PrecipitationSumIn
2014-1-1,80,70,64,68,64,60,92,81,63,29.99,29.86,7,1,12,0.00
2014-1-2,75,71,66,70,68,65,96,91,83,29.91,29.74,14,6,24,0.83
2014-1-3,75,68,64,66,59,53,96,74,52,29.93,29.75,11,2,16,0.06
2014-1-4,73,67,63,58,54,51,80,64,49,30.01,29.89,12,5,20,0.00
2014-1-5,73,66,62,58,56,48,79,70,55,30.03,29.91,12,6,21,0.00
2014-1-6,73,67,63,58,56,52,79,68,49,30.08,29.99,11,6,20,0.00
2014-1-7,74,68,64,58,56,54,76,68,54,30.12,30.02,13,6,23,0.00
2014-1-8,72,68,65,62,59,56,85,75,60,30.07,29.95,15,6,27,0.00
2014-1-9,73,66,64,64,62,60,91,84,72,30.02,29.92,7,2,12,0.05
2014-1-10,76,70,65,68,64,62,90,83,68,30.02,29.87,11,4,18,0.05
2014-1-11,75,69,66,68,65,62,94,88,75,29.98,29.90,10,1,15,0.60
2014-1-12,79,72,68,70,67,63,93,85,71,30.01,29.92,8,1,12,0.04
2014-1-13,76,70,67,70,68,65,96,92,78,29.99,29.87,8,2,20,0.80
2014-1-14,76,71,67,69,67,64,95,88,75,29.93,29.83,11,3,20,0.02
2014-1-15,75,70,66,69,66,64,94,88,75,29.92,29.83,12,3,17,0.00
2014-1-16,77,72,68,68,66,63,93,82,64,29.98,29.88,10,3,15,0.00
2014-1-17,78,71,66,68,65,62,90,82,70,30.03,29.95,8,1,10,0.00
2014-1-18,78,70,64,69,64,60,90,83,70,30.06,29.94,10,2,13,0.00
2014-1-19,78,69,63,68,64,60,92,83,68,30.00,29.89,5,1,10,0.00
2014-1-20,77,70,63,66,64,61,92,82,66,29.96,29.86,6,1,12,0.00
2014-1-21,74,70,65,69,66,63,95,87,78,29.92,29.79,16,5,28,0.29
2014-1-22,73,66,60,68,60,51,96,79,59,29.94,29.75,16,6,26,0.25
2014-1-23,72,64,57,58,54,51,83,71,57,29.99,29.85,10,2,14,0.00
2014-1-24,73,65,60,60,57,54,86,76,62,29.98,29.81,10,2,19,0.00
2014-1-25,73,69,64,64,60,57,81,73,62,29.88,29.77,14,6,25,0.00
2014-1-26,73,69,65,69,65,62,94,88,78,29.92,29.81,13,3,20,0.34
2014-1-27,70,66,64,66,62,59,94,87,79,30.04,29.89,19,4,28,0.02
2014-1-28,70,65,63,61,59,58,86,80,70,30.12,29.99,26,10,30,0.00
2014-1-29,73,67,63,68,64,61,94,88,79,30.07,29.96,27,6,27,0.36
2014-1-30,78,72,64,67,64,60,91,76,63,30.00,29.85,9,2,12,0.00
2014-1-31,78,70,65,70,66,60,96,88,72,29.91,29.80,6,2,13,0.14
2014-2-1,74,70,66,69,67,65,97,92,79,29.90,29.80,10,4,17,0.71
2014-2-2,78,69,62,68,64,59,97,83,63,30.00,29.86,7,2,11,0.02
2014-2-3,73,67,63,66,62,59,94,85,75,30.01,29.91,8,2,15,0.57
2014-2-4,68,65,63,66,63,61,95,93,90,30.00,29.88,5,1,14,0.40
2014-2-5,74,71,68,70,68,65,96,92,83,29.97,29.86,10,2,18,0.02
2014-2-6,78,72,68,71,69,66,97,91,77,30.01,29.92,6,1,12,0.02
2014-2-7,75,70,66,69,66,63,92,87,78,30.00,29.84,11,2,20,0.01
2014-2-8,77,70,66,69,65,62,90,83,75,30.00,29.89,13,4,23,0.01
2014-2-9,80,71,66,70,66,63,93,85,68,29.98,29.86,8,3,14,0.00
2014-2-10,78,72,67,70,67,62,95,85,70,30.04,29.92,5,2,10,0.04
2014-2-11,80,72,66,69,65,62,89,80,63,30.06,29.93,6,2,10,0.04
2014-2-12,79,71,67,69,65,64,91,84,65,30.01,29.92,4,1,8,0.00
2014-2-13,78,71,66,67,65,62,91,82,60,29.99,29.87,8,3,15,0.00
2014-2-14,71,69,68,67,66,64,92,88,86,30.02,29.91,13,8,23,0.06
2014-2-15,78,70,67,70,67,64,96,89,73,30.01,29.91,9,4,15,0.12
2014-2-16,71,70,67,69,66,63,94,89,79,30.02,29.88,4,1,9,0.27
2014-2-17,74,70,65,70,68,63,95,92,83,29.96,29.84,8,1,14,0.09
2014-2-18,78,73,68,72,69,67,96,89,78,29.99,29.88,6,1,9,0.02
2014-2-19,79,74,70,70,67,65,94,80,66,30.01,29.91,13,3,15,0.00
2014-2-20,78,73,69,68,67,65,90,81,67,29.97,29.87,13,5,20,0.00
2014-2-21,77,72,69,70,67,64,90,83,72,29.97,29.85,12,3,14,0.00
2014-2-22,80,74,70,70,67,64,89,80,65,30.00,29.91,13,5,18,0.00
2014-2-23,79,72,69,68,65,62,87,78,65,30.02,29.93,13,4,16,0.00
2014-2-24,76,71,65,64,61,58,83,72,59,30.01,29.89,15,4,20,0.00
2014-2-25,74,68,64,64,60,56,87,76,61,29.98,29.88,15,4,18,0.00
2014-2-26,73,66,63,61,57,52,82,72,52,30.04,29.93,26,8,35,0.00
2014-2-27,74,68,62,63,56,52,82,68,53,30.05,29.94,19,10,28,0.00
2014-2-28,75,71,68,69,67,62,95,88,68,29.98,29.87,18,8,24,0.05
2014-3-1,74,69,66,69,66,64,99,91,75,29.96,29.87,16,6,21,0.78
2014-3-2,70,67,65,67,64,60,97,90,80,29.96,29.83,13,3,16,0.27
2014-3-3,71,67,65,61,58,54,85,74,57,29.96,29.83,21,7,29,0.00
2014-3-4,73,68,64,59,56,52,77,67,49,30.04,29.91,16,6,21,0.00
2014-3-5,75,69,65,62,57,53,84,67,50,30.06,29.95,11,3,14,0.00
2014-3-6,76,70,64,69,65,59,94,86,76,30.04,29.90,11,3,18,0.34
2014-3-7,78,69,65,70,66,63,95,90,67,30.03,29.91,10,2,16,0.52
2014-3-8,76,68,63,68,64,62,95,89,76,30.10,29.96,13,3,20,0.08
2014-3-9,78,71,67,69,66,64,95,87,74,30.10,29.99,8,3,14,0.03
2014-3-10,79,70,65,69,66,63,92,86,69,30.09,29.96,8,2,12,0.03
2014-3-11,78,70,65,67,63,59,92,78,59,30.06,29.95,23,7,29,0.00
2014-3-12,77,71,67,64,62,59,88,75,55,30.09,29.99,18,11,25,0.00
2014-3-13,78,72,68,65,63,61,83,74,58,30.11,30.01,18,10,26,0.00
2014-3-14,78,71,67,68,65,62,92,81,68,30.11,30.01,21,10,29,0.19
2014-3-15,71,67,62,64,61,54,89,81,73,30.15,30.03,34,22,44,0.00
2014-3-16,70,66,61,59,56,52,81,71,57,30.15,30.02,33,20,43,0.00
2014-3-17,72,67,64,61,58,56,85,75,64,30.09,29.97,23,16,33,0.00
2014-3-18,72,67,64,61,58,55,85,75,56,30.03,29.90,20,12,29,0.00
2014-3-19,76,69,65,62,60,58,82,73,54,30.01,29.90,17,10,23,0.00
2014-3-20,76,70,65,63,61,58,83,75,56,30.07,29.97,20,10,24,0.00
2014-3-21,75,70,66,64,62,59,84,76,64,30.09,29.98,23,14,29,0.00
2014-3-22,77,70,66,65,62,59,82,76,65,30.10,30.01,22,12,28,0.00
2014-3-23,75,69,66,62,61,60,84,77,63,30.14,30.02,22,14,28,0.00
2014-3-24,76,70,66,62,61,59,84,74,59,30.17,30.07,22,14,29,0.00
2014-3-25,78,71,67,67,63,60,90,76,64,30.16,30.03,20,12,25,0.00
2014-3-26,77,72,68,70,67,65,96,85,71,30.14,30.04,18,6,20,0.24
2014-3-27,78,73,69,69,67,65,94,83,66,30.12,30.01,13,4,17,0.01
2014-3-28,82,72,66,69,65,59,91,79,56,30.08,29.98,9,1,13,0.00
2014-3-29,78,70,65,66,62,57,89,77,63,30.05,29.93,13,3,23,0.01
2014-3-30,79,72,65,66,64,62,90,77,58,30.04,29.96,9,4,17,0.00
2014-3-31,78,71,68,68,65,63,90,82,68,30.06,29.94,11,5,17,0.01
2014-4-1,79,72,69,68,66,64,89,82,68,30.10,29.99,11,6,20,0.01
2014-4-2,80,72,69,69,66,64,87,82,69,30.14,30.05,12,6,20,0.01
2014-4-3,78,72,68,65,64,62,84,76,59,30.15,30.04,11,6,21,0.00
2014-4-4,72,68,68,64,63,62,84,82,75,30.10,30.03,9,4,16,0.00
2014-4-5,80,71,64,66,63,58,89,76,59,30.05,29.94,11,2,17,0.00
2014-4-6,78,70,63,65,61,53,91,74,59,30.10,29.97,13,6,21,0.01
2014-4-7,74,67,64,64,61,57,88,81,69,30.12,30.02,17,11,28,0.00
2014-4-8,74,67,63,59,56,54,81,69,54,30.12,30.00,14,8,26,0.00
2014-4-9,76,68,64,59,57,54,76,66,53,30.11,30.00,11,5,19,0.00
2014-4-10,75,68,64,61,59,56,89,75,59,30.10,29.99,16,6,20,0.00
2014-4-11,76,70,66,62,59,55,81,70,52,30.12,30.01,19,7,24,0.00
2014-4-12,74,68,65,64,62,60,93,80,65,30.13,30.03,26,14,35,0.01
2014-4-13,74,70,68,65,61,57,86,74,69,30.18,30.06,31,17,41,0.00
2014-4-14,76,70,66,62,59,53,81,68,57,30.17,30.08,28,14,35,0.00
2014-4-15,77,70,65,64,62,59,88,76,60,30.13,30.02,26,11,34,0.00
2014-4-16,79,72,67,65,63,61,86,75,60,30.13,30.03,12,6,20,0.00
2014-4-17,80,72,67,68,65,63,90,79,63,30.13,30.03,11,5,17,0.01
2014-4-18,80,72,68,69,66,62,90,81,64,30.13,30.04,10,5,18,0.03
2014-4-19,81,72,67,66,63,61,86,75,59,30.14,30.04,11,6,20,0.00
2014-4-20,78,70,66,68,65,62,95,85,69,30.17,30.06,12,6,22,0.10
2014-4-21,75,70,67,69,66,64,95,88,78,30.16,30.08,11,6,20,0.07
2014-4-22,79,72,68,66,64,62,90,77,63,30.12,30.00,12,6,22,0.00
2014-4-23,80,73,68,66,64,62,87,74,58,30.12,30.02,12,5,21,0.00
2014-4-24,79,72,67,68,65,63,93,80,64,30.14,30.03,12,5,18,0.03
2014-4-25,78,71,67,66,65,62,94,80,65,30.14,30.06,11,6,21,0.06
2014-4-26,79,71,67,67,65,63,93,83,60,30.11,30.02,12,6,21,0.05
2014-4-27,76,70,67,70,66,63,93,85,73,30.08,29.96,9,4,15,0.08
2014-4-28,79,71,65,68,63,61,88,77,61,30.03,29.93,16,4,20,0.00
2014-4-29,77,71,67,63,62,60,84,73,58,30.05,29.95,22,12,28,0.00
2014-4-30,75,69,66,64,62,61,86,78,67,30.07,29.98,22,14,29,0.00
2014-5-1,78,71,66,65,62,60,85,75,55,30.05,29.96,19,10,24,0.00
2014-5-2,75,71,69,69,67,64,95,87,78,30.09,29.98,16,5,20,0.67
2014-5-3,78,73,70,70,68,65,92,85,76,30.09,30.00,12,4,16,0.00
2014-5-4,80,74,70,70,67,58,91,80,48,30.07,29.98,14,4,20,0.00
2014-5-5,78,72,68,71,68,63,95,86,67,30.12,30.01,14,4,17,0.56
2014-5-6,77,73,69,70,67,64,94,82,69,30.11,30.02,18,6,25,0.06
2014-5-7,79,73,70,69,67,65,94,82,67,30.12,30.03,14,4,18,0.04
2014-5-8,78,73,70,71,68,64,90,83,73,30.09,29.99,15,5,20,0.00
2014-5-9,79,74,70,70,67,64,90,79,66,30.09,30.00,10,3,16,0.00
2014-5-10,79,74,70,70,67,62,85,78,62,30.08,29.99,17,5,20,0.00
2014-5-11,80,72,68,70,67,65,95,85,62,30.07,29.99,18,8,23,0.22
2014-5-12,75,70,68,67,64,62,94,81,71,30.06,29.95,24,15,31,0.04
2014-5-13,76,71,67,63,62,59,86,74,61,30.00,29.91,23,13,30,0.00
2014-5-14,81,73,64,69,66,60,87,78,63,30.01,29.91,7,3,18,0.00
2014-5-15,80,73,67,70,67,64,90,82,68,30.04,29.95,10,2,15,0.00
2014-5-16,83,74,69,68,66,64,88,76,58,30.07,29.98,10,3,15,0.00
2014-5-17,83,73,66,69,66,62,89,78,55,30.04,29.95,7,1,12,0.00
2014-5-18,80,72,67,70,66,62,93,84,65,30.01,29.94,8,1,12,0.08
2014-5-19,77,72,66,70,67,64,94,87,73,30.01,29.94,12,2,15,0.00
2014-5-20,79,72,69,70,67,64,94,84,66,30.05,29.96,13,3,17,0.49
2014-5-21,79,73,69,69,67,64,91,80,61,30.05,29.97,18,6,22,0.00
2014-5-22,80,75,70,72,69,64,92,83,65,30.04,29.97,17,6,22,0.00
2014-5-23,80,75,71,74,70,66,96,86,67,30.05,29.96,17,4,23,0.12
2014-5-24,79,73,69,71,69,66,97,88,72,30.04,29.96,16,3,20,0.01
2014-5-25,78,70,66,71,66,62,95,85,72,30.07,29.98,16,5,21,1.27
2014-5-26,78,73,70,69,66,64,88,80,66,30.08,29.99,22,8,28,0.00
2014-5-27,79,73,68,67,66,64,93,77,63,30.10,29.99,25,13,31,0.00
2014-5-28,79,74,70,68,65,63,84,75,62,30.08,29.99,21,12,27,0.00
2014-5-29,80,74,70,67,65,61,84,75,54,30.05,29.96,19,10,25,0.00
2014-5-30,80,74,70,69,66,62,85,76,58,30.03,29.96,19,10,27,0.00
2014-5-31,79,74,70,67,66,64,86,76,63,30.03,29.96,17,10,23,0.00
2014-6-1,80,74,70,68,67,65,93,79,65,30.03,29.94,16,7,23,0.03
2014-6-2,79,73,70,70,68,65,94,83,66,30.00,29.92,20,8,27,0.94
2014-6-3,80,74,70,71,67,64,87,79,63,30.01,29.92,16,7,20,0.00
2014-6-4,79,74,70,67,65,63,87,75,61,30.01,29.94,22,12,30,0.00
2014-6-5,77,73,70,68,65,63,84,76,66,30.04,29.95,22,11,31,0.00
2014-6-6,76,72,68,69,66,64,92,80,70,30.05,29.98,23,13,32,0.00
2014-6-7,78,74,70,67,65,62,84,74,60,30.04,29.95,22,12,28,0.00
2014-6-8,79,74,69,66,65,62,91,75,58,30.03,29.95,20,11,23,0.00
2014-6-9,80,74,70,69,66,63,89,76,61,30.05,29.97,18,10,24,0.00
2014-6-10,80,75,71,70,67,64,83,78,69,30.06,29.99,17,9,23,0.00
2014-6-11,82,76,72,68,67,65,84,75,60,30.07,29.99,19,9,24,0.00
2014-6-12,80,75,72,67,66,63,82,73,58,30.06,29.97,22,11,27,0.00
2014-6-13,80,74,71,67,65,62,82,72,58,30.05,29.98,21,10,28,0.00
2014-6-14,80,74,70,67,64,61,87,73,55,30.05,29.99,23,11,31,0.00
2014-6-15,79,73,69,67,65,62,86,75,61,30.06,29.98,24,13,30,0.00
2014-6-16,79,73,68,66,64,60,91,74,53,30.04,29.95,21,12,29,0.00
2014-6-17,79,72,67,68,65,62,94,78,58,30.04,29.97,19,11,26,0.05
2014-6-18,79,74,70,67,65,62,84,74,59,30.08,30.00,22,11,31,0.00
2014-6-19,79,74,70,67,64,61,82,71,57,30.10,30.03,20,10,28,0.00
2014-6-20,80,73,67,66,64,57,94,74,46,30.09,30.00,22,11,28,0.00
2014-6-21,80,73,68,66,64,62,87,74,59,30.06,29.98,18,9,26,0.00
2014-6-22,79,74,69,69,65,62,84,74,57,30.02,29.95,17,9,22,0.00
2014-6-23,80,73,68,67,65,60,92,75,56,30.06,29.98,22,11,28,0.01
2014-6-24,81,74,68,70,67,64,91,79,59,30.13,30.03,18,9,25,0.00
2014-6-25,80,74,69,69,67,63,94,79,60,30.12,30.02,18,9,26,0.06
2014-6-26,79,73,68,69,66,64,95,78,60,30.06,29.96,22,10,30,0.02
2014-6-27,79,73,69,71,68,65,91,84,69,30.02,29.96,22,8,26,0.12
2014-6-28,80,75,70,71,69,67,91,83,69,30.06,29.97,16,6,20,0.00
2014-6-29,81,75,71,71,69,67,95,82,64,30.05,29.98,18,8,23,0.03
2014-6-30,83,75,70,68,66,63,90,74,55,30.02,29.94,17,9,22,0.00
2014-7-1,80,75,71,71,67,65,86,78,65,30.00,29.94,15,7,21,0.00
2014-7-2,82,76,70,70,68,66,91,76,59,30.05,29.93,16,9,21,0.00
2014-7-3,82,76,71,71,68,63,93,79,56,30.09,30.00,21,11,30,0.02
2014-7-4,81,76,72,68,66,64,85,72,60,30.11,30.01,25,12,35,0.00
2014-7-5,79,73,70,71,67,64,93,81,68,30.07,29.99,17,9,25,0.03
2014-7-6,82,74,69,69,66,62,94,76,56,30.04,29.96,19,10,26,0.02
2014-7-7,80,74,69,70,67,65,93,80,66,30.01,29.93,18,9,25,0.05
2014-7-8,81,75,71,68,66,65,88,75,59,30.03,29.94,23,11,27,0.00
2014-7-9,80,75,70,68,67,65,89,77,62,30.06,29.97,22,11,27,0.00
2014-7-10,81,75,71,69,67,64,88,76,58,30.05,29.96,23,11,30,0.00
2014-7-11,81,75,69,68,66,63,92,75,57,30.02,29.94,21,10,29,0.01
2014-7-12,83,76,72,70,67,64,93,76,56,30.04,29.95,18,8,25,0.00
2014-7-13,83,76,71,71,68,65,91,77,57,30.06,29.98,18,9,24,0.00
2014-7-14,82,76,74,74,72,69,91,85,76,30.09,30.02,22,10,27,0.06
2014-7-15,84,78,74,71,68,64,88,74,53,30.09,30.01,21,11,28,0.00
2014-7-16,81,76,73,71,68,64,93,76,58,30.07,29.98,20,11,28,0.00
2014-7-17,79,74,71,69,66,64,92,78,63,30.02,29.94,21,12,30,0.00
2014-7-18,81,75,71,67,65,61,88,72,53,30.00,29.92,22,10,29,0.00
2014-7-19,83,76,71,71,66,63,96,73,54,30.01,29.91,24,10,30,1.02
2014-7-20,82,75,69,71,68,63,97,82,55,30.01,29.89,26,13,34,0.26
2014-7-21,82,78,74,75,73,71,96,86,74,30.00,29.90,16,6,21,0.00
2014-7-22,83,77,74,76,73,70,96,87,72,30.06,29.93,20,7,25,0.05
2014-7-23,80,76,72,70,68,66,93,78,64,30.07,29.99,20,12,30,0.01
2014-7-24,80,75,72,68,66,62,89,75,56,30.06,29.98,20,11,28,0.00
2014-7-25,81,75,71,70,67,65,85,76,63,30.02,29.93,17,9,22,0.00
2014-7-26,84,76,72,71,68,65,96,76,58,29.98,29.90,16,7,21,0.04
2014-7-27,83,77,73,72,70,67,93,79,63,30.04,29.90,19,8,23,0.00
2014-7-28,82,77,73,70,68,67,84,76,61,30.05,29.98,17,9,22,0.00
2014-7-29,82,76,72,69,67,64,86,73,58,30.06,29.97,20,9,26,0.00
2014-7-30,81,76,71,67,65,62,82,72,55,30.03,29.96,17,9,24,0.00
2014-7-31,82,76,72,68,66,62,82,73,54,30.02,29.94,16,8,21,0.00
2014-8-1,82,77,73,70,68,66,86,76,62,30.00,29.92,19,9,24,0.00
2014-8-2,82,76,73,72,70,68,92,80,68,30.01,29.93,20,10,27,0.00
2014-8-3,83,77,73,69,68,66,84,75,58,30.01,29.93,20,10,30,0.00
2014-8-4,82,77,73,70,68,65,86,75,62,30.04,29.94,21,10,30,0.00
2014-8-5,82,76,72,68,66,62,83,71,53,30.05,29.96,23,11,30,0.00
2014-8-6,82,75,71,72,67,60,92,76,50,30.04,29.95,22,9,28,0.02
2014-8-7,82,76,70,72,69,67,93,79,63,30.02,29.92,30,14,40,0.04
2014-8-8,81,75,72,72,70,68,96,85,69,29.97,29.87,28,13,43,0.23
2014-8-9,81,76,72,73,71,69,96,87,74,30.01,29.91,16,8,21,0.23
2014-8-10,84,77,72,73,70,62,88,79,63,30.03,29.91,16,8,22,0.00
2014-8-11,84,77,72,73,69,65,89,77,66,30.06,29.96,11,3,14,0.00
2014-8-12,84,77,73,72,70,68,93,79,63,30.04,29.94,14,4,20,0.00
2014-8-13,83,76,72,71,68,64,94,76,54,30.01,29.92,13,7,20,0.02
2014-8-14,82,76,72,69,66,61,86,72,53,29.99,29.93,18,9,22,0.00
2014-8-15,82,76,72,69,66,64,84,73,55,30.00,29.94,18,9,24,0.00
2014-8-16,81,76,71,69,66,63,89,73,59,30.02,29.95,20,10,28,0.00
2014-8-17,80,76,73,71,67,66,88,76,65,30.03,29.96,22,10,29,0.04
2014-8-18,82,76,73,69,67,64,84,73,53,30.02,29.94,18,9,24,0.00
2014-8-19,81,76,72,70,67,65,83,75,62,30.00,29.89,18,10,24,0.00
2014-8-20,82,76,72,69,67,63,84,74,53,30.00,29.92,18,8,23,0.00
2014-8-21,82,77,73,71,69,67,85,78,66,30.04,29.95,22,9,28,0.00
2014-8-22,80,76,73,70,67,65,82,76,67,30.02,29.94,25,13,33,0.00
2014-8-23,82,76,71,68,66,63,86,73,57,30.00,29.88,23,9,32,0.00
2014-8-24,84,76,71,72,68,66,90,76,59,29.96,29.88,16,7,25,0.00
2014-8-25,83,76,71,70,69,66,92,78,59,29.96,29.88,16,8,22,0.03
2014-8-26,83,76,71,70,68,62,93,75,52,29.96,29.87,20,11,25,0.01
2014-8-27,81,76,73,68,66,64,83,71,58,29.93,29.86,19,11,25,0.00
2014-8-28,83,76,71,68,66,64,83,73,55,29.93,29.83,18,9,23,0.00
2014-8-29,80,76,72,71,68,66,84,77,67,29.94,29.87,15,6,20,0.00
2014-8-30,83,76,73,70,68,64,84,75,58,29.96,29.89,14,7,23,0.00
2014-8-31,82,76,72,70,68,65,90,77,60,30.02,29.93,18,5,22,0.00
2014-9-1,82,77,73,73,70,68,87,79,68,30.04,29.95,14,5,18,0.00
2014-9-2,83,77,74,74,70,67,89,78,62,30.03,29.93,16,6,22,0.03
2014-9-3,83,77,73,70,68,63,86,75,59,30.01,29.93,16,7,21,0.00
2014-9-4,82,76,72,70,67,66,84,75,61,29.99,29.89,17,8,22,0.00
2014-9-5,83,77,71,69,68,65,93,75,56,30.00,29.88,20,9,28,0.00
2014-9-6,82,76,73,72,69,67,85,78,65,29.99,29.90,16,8,21,0.00
2014-9-7,85,77,72,70,67,62,84,72,50,30.00,29.91,15,7,20,0.00
2014-9-8,83,77,73,69,67,62,83,72,51,30.00,29.92,16,7,20,0.00
2014-9-9,84,77,73,69,67,64,83,72,55,30.02,29.94,16,7,23,0.00
2014-9-10,80,76,73,71,68,66,85,77,67,30.02,29.93,17,8,25,0.00
2014-9-11,84,77,72,68,67,63,84,73,51,30.00,29.92,15,7,21,0.00
2014-9-12,82,76,73,71,68,67,84,78,64,29.98,29.89,20,7,25,0.00
2014-9-13,86,77,72,72,68,64,84,75,59,29.97,29.88,13,6,17,0.00
2014-9-14,84,78,74,74,68,60,91,72,47,29.95,29.85,14,4,20,0.00
2014-9-15,85,78,73,74,70,67,92,79,59,29.95,29.86,17,6,20,0.00
2014-9-16,83,78,72,73,70,68,93,76,62,29.96,29.87,20,7,25,0.01
2014-9-17,84,77,72,74,70,68,90,80,62,29.97,29.88,14,6,18,0.02
2014-9-18,82,76,74,73,70,68,91,83,68,29.95,29.88,10,3,14,0.31
2014-9-19,82,77,73,74,71,67,90,82,70,29.95,29.86,10,4,14,0.02
2014-9-20,84,78,73,74,71,67,92,80,63,29.97,29.87,13,3,16,0.17
2014-9-21,84,78,74,76,72,68,91,81,67,30.03,29.91,15,5,20,0.02
2014-9-22,87,79,74,72,69,68,84,73,57,30.05,29.97,10,4,14,0.00
2014-9-23,86,78,74,71,68,64,87,72,49,30.05,29.97,9,4,17,0.00
2014-9-24,85,78,74,71,69,67,92,76,62,30.05,29.98,10,4,20,0.03
2014-9-25,86,78,73,73,71,67,92,80,61,30.04,29.94,11,5,18,0.01
2014-9-26,86,78,74,73,71,70,90,80,61,30.01,29.92,8,3,14,0.00
2014-9-27,86,77,73,73,70,67,94,80,62,29.99,29.90,8,4,15,0.14
2014-9-28,83,76,71,73,69,66,90,80,69,29.97,29.89,10,4,18,0.05
2014-9-29,84,77,72,75,71,68,88,81,65,29.96,29.87,10,2,17,0.07
2014-9-30,83,76,72,74,71,68,93,85,70,29.96,29.86,9,1,14,0.19
2014-10-1,84,75,71,73,70,68,92,86,66,29.96,29.87,6,1,10,0.93
2014-10-2,83,76,71,74,70,67,90,81,64,29.97,29.87,8,2,15,0.00
2014-10-3,84,76,72,71,68,67,85,77,58,29.98,29.89,8,3,13,0.00
2014-10-4,83,76,72,72,70,67,90,81,67,29.96,29.85,7,2,13,0.02
2014-10-5,85,76,70,73,70,67,94,82,61,29.92,29.83,11,2,16,0.02
2014-10-6,84,76,71,72,70,68,93,82,64,29.95,29.83,9,2,15,0.00
2014-10-7,82,76,72,74,71,69,93,87,70,30.02,29.91,7,1,10,0.27
2014-10-8,83,76,70,74,69,66,89,79,65,30.05,29.96,8,2,12,0.00
2014-10-9,84,78,74,72,69,67,85,76,62,30.03,29.93,9,4,18,0.00
2014-10-16,82,77,74,67,65,63,80,67,56,29.96,29.88,16,8,20,0.00
2014-10-17,84,79,75,74,73,70,93,82,70,29.95,29.86,20,10,26,0.00
2014-10-18,79,75,71,76,72,69,98,92,83,30.03,29.89,23,10,35,1.25
2014-10-19,74,72,70,73,71,68,98,97,84,30.06,29.94,20,10,26,4.48
2014-10-20,80,76,73,72,70,68,89,81,69,30.03,29.93,16,8,25,0.06
2014-10-21,82,77,73,74,71,68,89,82,72,30.03,29.93,14,6,18,0.00
2014-10-22,82,75,73,75,71,70,94,88,74,30.03,29.95,11,4,14,0.19
2014-10-23,82,76,73,72,69,66,92,79,59,30.06,29.97,20,8,26,0.00
2014-10-24,82,76,71,72,69,67,92,80,64,30.05,29.97,16,9,24,0.00
2014-10-25,80,76,73,74,70,67,92,82,72,30.03,29.94,16,8,22,0.00
2014-10-26,81,76,72,70,67,63,94,76,56,30.07,29.98,21,10,28,0.00
2014-10-27,80,75,72,70,68,66,87,79,70,30.04,29.95,20,8,23,0.00
2014-10-28,81,75,72,70,68,66,84,78,67,30.07,29.96,18,9,23,0.00
2014-10-29,80,75,72,71,68,66,86,80,71,30.09,30.00,23,14,29,0.00
2014-10-30,78,74,71,70,67,65,90,80,72,30.08,29.97,21,12,30,0.00
2014-10-31,77,74,72,71,68,66,92,84,77,30.08,29.97,20,11,32,0.03
2014-11-1,80,76,73,70,68,67,87,78,65,30.07,29.99,18,10,26,0.00
2014-11-2,80,75,71,70,69,66,94,82,67,30.05,29.97,22,12,29,0.00
2014-11-3,80,75,72,73,70,68,94,86,76,30.02,29.91,18,7,26,0.03
2014-11-4,80,76,72,72,69,67,89,79,67,30.01,29.91,16,5,22,0.06
2014-11-5,79,74,71,71,68,65,95,81,65,30.06,29.94,20,10,27,0.01
2014-11-6,80,74,71,69,67,66,84,78,65,30.05,29.96,14,6,20,0.00
2014-11-7,82,74,68,71,67,64,89,80,68,30.01,29.88,8,2,13,0.00
2014-11-8,76,71,67,68,63,58,89,76,60,30.00,29.88,16,7,26,0.01
2014-11-9,78,71,67,64,60,56,77,69,58,30.01,29.90,10,3,18,0.00
2014-11-10,80,72,65,67,62,58,86,72,55,30.00,29.92,9,2,14,0.00
2014-11-11,79,72,69,67,63,58,88,74,51,30.00,29.89,15,4,17,0.00
2014-11-12,78,73,68,70,67,65,93,82,68,29.97,29.87,12,4,17,0.00
2014-11-13,79,74,70,71,69,65,95,85,74,29.94,29.82,12,3,17,0.00
2014-11-14,78,74,71,71,69,67,96,86,71,29.88,29.79,15,5,20,0.29
2014-11-15,78,73,70,74,70,66,97,89,77,29.91,29.79,15,5,24,0.36
2014-11-16,77,72,69,67,64,61,91,77,64,30.06,29.89,26,12,33,0.00
2014-11-17,76,72,70,65,63,60,81,72,59,30.11,30.03,22,12,29,0.00
2014-11-18,78,72,70,66,63,60,79,72,60,30.14,30.04,23,10,29,0.00
2014-11-19,78,73,70,67,64,60,84,73,60,30.14,30.02,22,12,31,0.00
2014-11-20,80,74,71,70,68,66,88,81,72,30.12,30.00,18,10,26,0.00
2014-11-21,79,74,71,70,68,66,86,80,68,30.10,29.95,18,10,25,0.00
2014-11-22,80,74,71,68,66,63,84,76,58,30.09,29.97,18,7,23,0.00
2014-11-23,80,74,71,70,67,61,88,78,57,30.03,29.88,14,5,20,0.00
2014-11-24,74,70,67,69,64,58,90,80,71,29.98,29.84,24,9,30,0.04
2014-11-25,74,69,66,63,60,57,78,72,62,30.06,29.96,21,13,26,0.00
2014-11-26,74,70,67,62,60,57,78,72,62,30.10,29.98,26,15,33,0.00
2014-11-27,74,70,68,62,60,58,78,70,58,30.08,29.98,24,13,37,0.00
2014-11-28,74,70,68,65,63,58,87,76,67,30.07,29.98,26,15,36,0.00
2014-11-29,74,70,66,66,64,61,96,81,69,30.03,29.94,24,12,30,0.01
2014-11-30,75,70,66,65,62,57,96,76,55,30.03,29.91,24,12,32,0.02
2014-12-1,72,68,66,64,60,56,90,75,63,30.04,29.94,24,10,31,0.00
2014-12-2,74,69,66,63,61,56,85,76,64,30.03,29.92,21,11,27,0.00
2014-12-3,68,67,67,64,64,63,92,89,87,30.02,30.00,19,14,26,0.00
2014-12-4,74,69,67,65,63,62,88,82,75,30.05,29.94,19,11,24,0.00
2014-12-5,77,71,68,67,65,62,87,80,69,30.04,29.93,15,6,20,0.00
2014-12-6,78,70,67,64,62,58,86,75,54,30.09,29.99,22,9,28,0.00
2014-12-7,77,70,67,66,63,62,86,78,64,30.07,29.96,11,4,15,0.00
2014-12-8,76,71,67,67,64,61,89,79,63,30.06,29.95,12,3,15,0.00
2014-12-9,80,72,69,69,66,62,92,82,61,30.14,30.00,16,3,21,0.00
2014-12-10,79,72,68,70,66,61,93,81,64,30.15,30.03,20,6,26,0.00
2014-12-11,76,71,70,67,66,64,90,82,71,30.12,30.02,20,10,26,0.00
2014-12-12,77,72,68,68,65,63,89,80,65,30.11,30.00,15,6,21,0.00
2014-12-13,75,71,67,65,63,61,92,76,64,30.15,30.04,24,12,35,0.00
2014-12-14,70,68,66,65,62,57,95,82,69,30.16,30.07,28,15,39,0.01
2014-12-15,74,69,65,64,62,58,90,79,61,30.14,30.03,22,12,31,0.00
2014-12-16,76,70,66,66,64,62,94,81,65,30.15,30.02,21,11,30,0.02
2014-12-17,78,71,67,68,65,63,94,82,68,30.18,30.06,19,6,25,0.08
2014-12-18,75,70,67,68,66,64,92,86,79,30.17,30.03,10,5,16,0.03
2014-12-19,78,72,68,68,66,63,87,80,70,30.13,29.98,10,4,18,0.00
2014-12-20,78,72,67,66,64,63,89,79,62,30.07,29.95,6,2,12,0.00
2014-12-21,79,72,66,67,64,60,89,77,57,30.04,29.92,9,2,13,0.00
2014-12-22,70,67,64,65,62,58,90,83,73,30.04,29.95,30,9,38,0.02
2014-12-23,72,67,64,62,59,56,88,76,60,30.01,29.82,30,21,40,0.00
2014-12-24,74,69,65,66,64,61,93,83,69,29.85,29.74,24,5,35,0.00
2014-12-25,74,69,66,66,63,60,89,80,67,29.81,29.71,17,5,21,0.00
2014-12-26,74,70,67,65,62,59,83,76,64,29.86,29.74,18,5,25,0.00
2014-12-27,74,68,64,62,57,54,87,68,54,29.93,29.81,17,3,22,0.02
2014-12-28,74,67,64,60,57,55,79,71,54,29.99,29.89,17,7,26,0.00
2014-12-29,73,68,63,62,59,57,82,75,61,29.97,29.85,15,5,20,0.00
2014-12-30,72,67,63,68,61,52,95,82,68,29.90,29.70,30,6,43,0.38
2014-12-31,69,65,62,56,52,46,75,63,52,29.93,29.80,27,8,38,0.00
2015-1-1,69,65,60,60,57,50,87,74,62,29.92,29.81,19,5,25,0.00
2015-1-2,71,66,61,67,62,59,95,87,75,29.82,29.50,32,9,45,0.64